sensor_id;sensor_type;location;lat;lon;timestamp;P1;durP1;ratioP1;P2;durP2;ratioP2
8488;SDS011;4281;45.772;12.852;2023-04-24T00:02:09;8.43;;;7.70;;
8488;SDS011;4281;45.772;12.852;2023-04-24T00:04:39;8.90;;;8.10;;
8488;SDS011;4281;45.772;12.852;2023-04-24T00:07:11;8.50;;;7.80;;
8488;SDS011;4281;45.772;12.852;2023-04-24T00:09:39;8.77;;;7.97;;
8488;SDS011;4281;45.772;12.852;2023-04-24T00:12:08;8.70;;;8.00;;
8488;SDS011;4281;45.772;12.852;2023-04-24T00:14:36;8.93;;;8.10;;
8488;SDS011;4281;45.772;12.852;2023-04-24T00:17:04;8.73;;;8.03;;
8488;SDS011;4281;45.772;12.852;2023-04-24T00:19:32;9.73;;;8.73;;
8488;SDS011;4281;45.772;12.852;2023-04-24T00:22:00;8.97;;;8.27;;
8488;SDS011;4281;45.772;12.852;2023-04-24T00:24:28;9.20;;;8.40;;
8488;SDS011;4281;45.772;12.852;2023-04-24T00:26:57;8.90;;;8.20;;
8488;SDS011;4281;45.772;12.852;2023-04-24T00:29:26;9.03;;;8.13;;
8488;SDS011;4281;45.772;12.852;2023-04-24T00:31:55;8.93;;;8.10;;
8488;SDS011;4281;45.772;12.852;2023-04-24T00:34:23;9.47;;;8.57;;
8488;SDS011;4281;45.772;12.852;2023-04-24T00:36:51;9.33;;;8.47;;
8488;SDS011;4281;45.772;12.852;2023-04-24T00:39:19;9.37;;;8.47;;
8488;SDS011;4281;45.772;12.852;2023-04-24T00:41:47;8.60;;;7.90;;
8488;SDS011;4281;45.772;12.852;2023-04-24T00:44:15;8.90;;;8.00;;
8488;SDS011;4281;45.772;12.852;2023-04-24T00:46:44;8.90;;;8.10;;
8488;SDS011;4281;45.772;12.852;2023-04-24T00:49:13;8.70;;;7.87;;
8488;SDS011;4281;45.772;12.852;2023-04-24T00:51:41;8.63;;;7.83;;
8488;SDS011;4281;45.772;12.852;2023-04-24T00:54:11;9.20;;;8.40;;
8488;SDS011;4281;45.772;12.852;2023-04-24T00:56:39;8.70;;;7.90;;
8488;SDS011;4281;45.772;12.852;2023-04-24T00:59:07;8.60;;;7.90;;
8488;SDS011;4281;45.772;12.852;2023-04-24T01:01:35;8.80;;;8.00;;
8488;SDS011;4281;45.772;12.852;2023-04-24T01:04:05;8.07;;;7.37;;
8488;SDS011;4281;45.772;12.852;2023-04-24T01:06:34;8.77;;;8.07;;
8488;SDS011;4281;45.772;12.852;2023-04-24T01:09:02;8.93;;;8.03;;
8488;SDS011;4281;45.772;12.852;2023-04-24T01:11:29;8.93;;;8.07;;
8488;SDS011;4281;45.772;12.852;2023-04-24T01:13:58;8.60;;;7.90;;
8488;SDS011;4281;45.772;12.852;2023-04-24T01:16:28;8.43;;;7.73;;
8488;SDS011;4281;45.772;12.852;2023-04-24T01:18:56;9.00;;;8.20;;
8488;SDS011;4281;45.772;12.852;2023-04-24T01:21:26;8.80;;;7.90;;
8488;SDS011;4281;45.772;12.852;2023-04-24T01:23:56;8.30;;;7.60;;
8488;SDS011;4281;45.772;12.852;2023-04-24T01:26:24;8.13;;;7.43;;
8488;SDS011;4281;45.772;12.852;2023-04-24T01:28:51;7.87;;;7.17;;
8488;SDS011;4281;45.772;12.852;2023-04-24T01:31:19;8.97;;;8.03;;
8488;SDS011;4281;45.772;12.852;2023-04-24T01:33:50;8.83;;;8.03;;
8488;SDS011;4281;45.772;12.852;2023-04-24T01:36:18;7.83;;;7.10;;
8488;SDS011;4281;45.772;12.852;2023-04-24T01:38:46;8.60;;;7.90;;
8488;SDS011;4281;45.772;12.852;2023-04-24T01:41:15;8.83;;;8.03;;
8488;SDS011;4281;45.772;12.852;2023-04-24T01:43:43;8.60;;;7.93;;
8488;SDS011;4281;45.772;12.852;2023-04-24T01:46:11;8.40;;;7.60;;
8488;SDS011;4281;45.772;12.852;2023-04-24T01:48:39;8.73;;;8.00;;
8488;SDS011;4281;45.772;12.852;2023-04-24T01:51:07;8.13;;;7.43;;
8488;SDS011;4281;45.772;12.852;2023-04-24T01:53:35;8.37;;;7.63;;
8488;SDS011;4281;45.772;12.852;2023-04-24T01:56:03;8.23;;;7.53;;
8488;SDS011;4281;45.772;12.852;2023-04-24T01:58:32;8.13;;;7.33;;
8488;SDS011;4281;45.772;12.852;2023-04-24T02:01:00;7.83;;;7.03;;
8488;SDS011;4281;45.772;12.852;2023-04-24T02:03:28;8.13;;;7.40;;
8488;SDS011;4281;45.772;12.852;2023-04-24T02:05:56;8.20;;;7.50;;
8488;SDS011;4281;45.772;12.852;2023-04-24T02:08:24;7.97;;;7.27;;
8488;SDS011;4281;45.772;12.852;2023-04-24T02:10:52;7.63;;;6.93;;
8488;SDS011;4281;45.772;12.852;2023-04-24T02:13:20;8.23;;;7.53;;
8488;SDS011;4281;45.772;12.852;2023-04-24T02:15:49;7.50;;;6.80;;
8488;SDS011;4281;45.772;12.852;2023-04-24T02:18:17;8.40;;;7.53;;
8488;SDS011;4281;45.772;12.852;2023-04-24T02:20:45;8.17;;;7.47;;
8488;SDS011;4281;45.772;12.852;2023-04-24T02:23:12;7.87;;;7.20;;
8488;SDS011;4281;45.772;12.852;2023-04-24T02:25:40;8.00;;;7.30;;
8488;SDS011;4281;45.772;12.852;2023-04-24T02:28:08;7.83;;;7.13;;
8488;SDS011;4281;45.772;12.852;2023-04-24T02:30:36;8.07;;;7.37;;
8488;SDS011;4281;45.772;12.852;2023-04-24T02:33:05;7.70;;;7.00;;
8488;SDS011;4281;45.772;12.852;2023-04-24T02:35:33;7.73;;;7.03;;
8488;SDS011;4281;45.772;12.852;2023-04-24T02:38:01;8.07;;;7.37;;
8488;SDS011;4281;45.772;12.852;2023-04-24T02:40:29;8.30;;;7.60;;
8488;SDS011;4281;45.772;12.852;2023-04-24T02:42:57;7.77;;;7.07;;
8488;SDS011;4281;45.772;12.852;2023-04-24T02:45:25;8.03;;;7.33;;
8488;SDS011;4281;45.772;12.852;2023-04-24T02:47:52;8.23;;;7.53;;
8488;SDS011;4281;45.772;12.852;2023-04-24T02:50:22;8.40;;;7.70;;
8488;SDS011;4281;45.772;12.852;2023-04-24T02:52:49;8.80;;;8.10;;
8488;SDS011;4281;45.772;12.852;2023-04-24T02:55:17;8.43;;;7.70;;
8488;SDS011;4281;45.772;12.852;2023-04-24T02:57:45;7.60;;;7.00;;
8488;SDS011;4281;45.772;12.852;2023-04-24T03:00:13;8.30;;;7.50;;
8488;SDS011;4281;45.772;12.852;2023-04-24T03:02:41;7.73;;;7.07;;
8488;SDS011;4281;45.772;12.852;2023-04-24T03:05:09;8.10;;;7.40;;
8488;SDS011;4281;45.772;12.852;2023-04-24T03:07:39;8.17;;;7.47;;
8488;SDS011;4281;45.772;12.852;2023-04-24T03:10:07;7.73;;;7.03;;
8488;SDS011;4281;45.772;12.852;2023-04-24T03:12:35;7.77;;;7.10;;
8488;SDS011;4281;45.772;12.852;2023-04-24T03:15:03;7.87;;;7.20;;
8488;SDS011;4281;45.772;12.852;2023-04-24T03:17:32;7.63;;;7.03;;
8488;SDS011;4281;45.772;12.852;2023-04-24T03:19:59;7.63;;;6.93;;
8488;SDS011;4281;45.772;12.852;2023-04-24T03:22:27;7.47;;;6.87;;
8488;SDS011;4281;45.772;12.852;2023-04-24T03:24:56;7.90;;;7.20;;
8488;SDS011;4281;45.772;12.852;2023-04-24T03:27:24;8.13;;;7.33;;
8488;SDS011;4281;45.772;12.852;2023-04-24T03:29:52;8.13;;;7.43;;
8488;SDS011;4281;45.772;12.852;2023-04-24T03:32:21;7.97;;;7.23;;
8488;SDS011;4281;45.772;12.852;2023-04-24T03:34:50;8.23;;;7.43;;
8488;SDS011;4281;45.772;12.852;2023-04-24T03:37:18;7.43;;;6.70;;
8488;SDS011;4281;45.772;12.852;2023-04-24T03:39:46;7.73;;;7.00;;
8488;SDS011;4281;45.772;12.852;2023-04-24T03:42:15;8.17;;;7.37;;
8488;SDS011;4281;45.772;12.852;2023-04-24T03:44:43;7.50;;;6.90;;
8488;SDS011;4281;45.772;12.852;2023-04-24T03:47:11;8.17;;;7.47;;
8488;SDS011;4281;45.772;12.852;2023-04-24T03:49:39;7.07;;;6.40;;
8488;SDS011;4281;45.772;12.852;2023-04-24T03:52:07;7.30;;;6.70;;
8488;SDS011;4281;45.772;12.852;2023-04-24T03:54:35;7.53;;;6.93;;
8488;SDS011;4281;45.772;12.852;2023-04-24T03:57:04;7.53;;;6.90;;
8488;SDS011;4281;45.772;12.852;2023-04-24T03:59:33;7.57;;;6.87;;
8488;SDS011;4281;45.772;12.852;2023-04-24T04:02:01;7.27;;;6.57;;
8488;SDS011;4281;45.772;12.852;2023-04-24T04:04:29;7.20;;;6.60;;
8488;SDS011;4281;45.772;12.852;2023-04-24T04:06:57;6.67;;;6.07;;
8488;SDS011;4281;45.772;12.852;2023-04-24T04:09:27;7.90;;;7.10;;
8488;SDS011;4281;45.772;12.852;2023-04-24T04:11:55;7.60;;;6.90;;
8488;SDS011;4281;45.772;12.852;2023-04-24T04:14:22;7.43;;;6.77;;
8488;SDS011;4281;45.772;12.852;2023-04-24T04:16:52;8.40;;;7.20;;
8488;SDS011;4281;45.772;12.852;2023-04-24T04:19:20;7.13;;;6.53;;
8488;SDS011;4281;45.772;12.852;2023-04-24T04:21:48;6.57;;;6.03;;
8488;SDS011;4281;45.772;12.852;2023-04-24T04:24:19;6.87;;;6.37;;
8488;SDS011;4281;45.772;12.852;2023-04-24T04:26:48;7.50;;;6.90;;
8488;SDS011;4281;45.772;12.852;2023-04-24T04:29:17;6.67;;;6.13;;
8488;SDS011;4281;45.772;12.852;2023-04-24T04:31:45;7.10;;;6.50;;
8488;SDS011;4281;45.772;12.852;2023-04-24T04:34:14;7.93;;;7.13;;
8488;SDS011;4281;45.772;12.852;2023-04-24T04:36:42;7.40;;;6.73;;
8488;SDS011;4281;45.772;12.852;2023-04-24T04:39:12;7.37;;;6.67;;
8488;SDS011;4281;45.772;12.852;2023-04-24T04:41:41;7.33;;;6.73;;
8488;SDS011;4281;45.772;12.852;2023-04-24T04:44:09;6.87;;;6.27;;
8488;SDS011;4281;45.772;12.852;2023-04-24T04:46:36;7.87;;;7.17;;
8488;SDS011;4281;45.772;12.852;2023-04-24T04:49:04;7.07;;;6.47;;
8488;SDS011;4281;45.772;12.852;2023-04-24T04:51:33;7.03;;;6.40;;
8488;SDS011;4281;45.772;12.852;2023-04-24T04:54:01;7.20;;;6.43;;
8488;SDS011;4281;45.772;12.852;2023-04-24T04:56:29;6.57;;;5.97;;
8488;SDS011;4281;45.772;12.852;2023-04-24T04:58:58;7.23;;;6.53;;
8488;SDS011;4281;45.772;12.852;2023-04-24T05:01:26;6.83;;;6.13;;
8488;SDS011;4281;45.772;12.852;2023-04-24T05:03:54;6.80;;;6.30;;
8488;SDS011;4281;45.772;12.852;2023-04-24T05:06:22;8.60;;;6.67;;
8488;SDS011;4281;45.772;12.852;2023-04-24T05:08:51;7.47;;;6.27;;
8488;SDS011;4281;45.772;12.852;2023-04-24T05:11:23;6.80;;;6.00;;
8488;SDS011;4281;45.772;12.852;2023-04-24T05:13:51;6.20;;;5.70;;
8488;SDS011;4281;45.772;12.852;2023-04-24T05:16:19;6.40;;;5.80;;
8488;SDS011;4281;45.772;12.852;2023-04-24T05:18:48;6.70;;;6.07;;
8488;SDS011;4281;45.772;12.852;2023-04-24T05:21:16;6.37;;;5.83;;
8488;SDS011;4281;45.772;12.852;2023-04-24T05:23:44;6.73;;;5.80;;
8488;SDS011;4281;45.772;12.852;2023-04-24T05:26:13;6.10;;;5.53;;
8488;SDS011;4281;45.772;12.852;2023-04-24T05:28:41;6.60;;;5.90;;
8488;SDS011;4281;45.772;12.852;2023-04-24T05:31:09;7.17;;;5.77;;
8488;SDS011;4281;45.772;12.852;2023-04-24T05:33:38;6.53;;;5.57;;
8488;SDS011;4281;45.772;12.852;2023-04-24T05:36:06;9.03;;;6.20;;
8488;SDS011;4281;45.772;12.852;2023-04-24T05:38:34;7.53;;;6.60;;
8488;SDS011;4281;45.772;12.852;2023-04-24T05:41:02;7.37;;;6.07;;
8488;SDS011;4281;45.772;12.852;2023-04-24T05:43:32;7.07;;;5.90;;
8488;SDS011;4281;45.772;12.852;2023-04-24T05:45:59;6.67;;;5.53;;
8488;SDS011;4281;45.772;12.852;2023-04-24T05:48:27;5.83;;;5.23;;
8488;SDS011;4281;45.772;12.852;2023-04-24T05:50:55;7.83;;;5.50;;
8488;SDS011;4281;45.772;12.852;2023-04-24T05:53:23;5.87;;;5.27;;
8488;SDS011;4281;45.772;12.852;2023-04-24T05:55:51;6.00;;;5.47;;
8488;SDS011;4281;45.772;12.852;2023-04-24T05:58:18;5.77;;;5.17;;
8488;SDS011;4281;45.772;12.852;2023-04-24T06:00:47;7.10;;;5.07;;
8488;SDS011;4281;45.772;12.852;2023-04-24T06:03:16;6.40;;;5.27;;
8488;SDS011;4281;45.772;12.852;2023-04-24T06:05:44;6.53;;;5.13;;
8488;SDS011;4281;45.772;12.852;2023-04-24T06:08:12;6.90;;;5.50;;
8488;SDS011;4281;45.772;12.852;2023-04-24T06:10:39;5.60;;;4.97;;
8488;SDS011;4281;45.772;12.852;2023-04-24T06:13:07;6.70;;;5.37;;
8488;SDS011;4281;45.772;12.852;2023-04-24T06:15:36;6.53;;;5.37;;
8488;SDS011;4281;45.772;12.852;2023-04-24T06:18:05;6.17;;;5.57;;
8488;SDS011;4281;45.772;12.852;2023-04-24T06:20:33;6.13;;;5.17;;
8488;SDS011;4281;45.772;12.852;2023-04-24T06:23:01;5.77;;;5.17;;
8488;SDS011;4281;45.772;12.852;2023-04-24T06:25:29;6.47;;;5.27;;
8488;SDS011;4281;45.772;12.852;2023-04-24T06:27:57;5.40;;;4.87;;
8488;SDS011;4281;45.772;12.852;2023-04-24T06:30:25;5.73;;;5.20;;
8488;SDS011;4281;45.772;12.852;2023-04-24T06:32:53;6.87;;;5.53;;
8488;SDS011;4281;45.772;12.852;2023-04-24T06:35:32;5.60;;;5.10;;
8488;SDS011;4281;45.772;12.852;2023-04-24T06:38:00;5.60;;;5.00;;
8488;SDS011;4281;45.772;12.852;2023-04-24T06:40:28;5.83;;;5.30;;
8488;SDS011;4281;45.772;12.852;2023-04-24T06:42:56;5.90;;;5.13;;
8488;SDS011;4281;45.772;12.852;2023-04-24T06:45:26;5.83;;;4.80;;
8488;SDS011;4281;45.772;12.852;2023-04-24T06:47:54;6.13;;;5.13;;
8488;SDS011;4281;45.772;12.852;2023-04-24T06:50:22;6.37;;;5.07;;
8488;SDS011;4281;45.772;12.852;2023-04-24T06:52:51;6.27;;;5.67;;
8488;SDS011;4281;45.772;12.852;2023-04-24T06:55:20;6.60;;;5.97;;
8488;SDS011;4281;45.772;12.852;2023-04-24T06:57:49;6.03;;;5.43;;
8488;SDS011;4281;45.772;12.852;2023-04-24T07:00:17;6.60;;;5.97;;
8488;SDS011;4281;45.772;12.852;2023-04-24T07:02:46;6.23;;;5.67;;
8488;SDS011;4281;45.772;12.852;2023-04-24T07:05:14;6.43;;;5.90;;
8488;SDS011;4281;45.772;12.852;2023-04-24T07:07:42;7.10;;;5.97;;
8488;SDS011;4281;45.772;12.852;2023-04-24T07:10:12;6.83;;;6.00;;
8488;SDS011;4281;45.772;12.852;2023-04-24T07:12:40;6.23;;;5.00;;
8488;SDS011;4281;45.772;12.852;2023-04-24T07:15:08;5.93;;;5.33;;
8488;SDS011;4281;45.772;12.852;2023-04-24T07:17:37;8.27;;;5.47;;
8488;SDS011;4281;45.772;12.852;2023-04-24T07:20:10;6.10;;;5.50;;
8488;SDS011;4281;45.772;12.852;2023-04-24T07:22:38;5.43;;;4.93;;
8488;SDS011;4281;45.772;12.852;2023-04-24T07:25:07;6.07;;;5.50;;
8488;SDS011;4281;45.772;12.852;2023-04-24T07:27:36;6.77;;;5.23;;
8488;SDS011;4281;45.772;12.852;2023-04-24T07:30:05;6.30;;;5.70;;
8488;SDS011;4281;45.772;12.852;2023-04-24T07:32:33;7.70;;;5.17;;
8488;SDS011;4281;45.772;12.852;2023-04-24T07:35:03;6.00;;;5.10;;
8488;SDS011;4281;45.772;12.852;2023-04-24T07:37:32;5.20;;;4.80;;
8488;SDS011;4281;45.772;12.852;2023-04-24T07:39:59;6.33;;;4.90;;
8488;SDS011;4281;45.772;12.852;2023-04-24T07:42:27;5.30;;;4.80;;
8488;SDS011;4281;45.772;12.852;2023-04-24T07:44:58;5.37;;;4.87;;
8488;SDS011;4281;45.772;12.852;2023-04-24T07:47:26;5.57;;;4.77;;
8488;SDS011;4281;45.772;12.852;2023-04-24T07:49:54;5.63;;;5.10;;
8488;SDS011;4281;45.772;12.852;2023-04-24T07:52:22;7.57;;;5.37;;
8488;SDS011;4281;45.772;12.852;2023-04-24T07:54:50;7.17;;;6.10;;
8488;SDS011;4281;45.772;12.852;2023-04-24T07:57:24;7.17;;;6.20;;
8488;SDS011;4281;45.772;12.852;2023-04-24T07:59:52;7.50;;;6.73;;
8488;SDS011;4281;45.772;12.852;2023-04-24T08:02:21;7.00;;;6.03;;
8488;SDS011;4281;45.772;12.852;2023-04-24T08:04:53;8.03;;;6.27;;
8488;SDS011;4281;45.772;12.852;2023-04-24T08:07:21;8.40;;;6.37;;
8488;SDS011;4281;45.772;12.852;2023-04-24T08:09:50;6.87;;;5.90;;
8488;SDS011;4281;45.772;12.852;2023-04-24T08:12:18;6.00;;;5.23;;
8488;SDS011;4281;45.772;12.852;2023-04-24T08:14:45;6.40;;;4.97;;
8488;SDS011;4281;45.772;12.852;2023-04-24T08:17:13;5.77;;;4.47;;
8488;SDS011;4281;45.772;12.852;2023-04-24T08:19:42;5.93;;;4.20;;
8488;SDS011;4281;45.772;12.852;2023-04-24T08:22:14;5.10;;;4.20;;
8488;SDS011;4281;45.772;12.852;2023-04-24T08:24:42;5.57;;;4.47;;
8488;SDS011;4281;45.772;12.852;2023-04-24T08:27:10;4.80;;;4.30;;
8488;SDS011;4281;45.772;12.852;2023-04-24T08:29:38;4.70;;;4.20;;
8488;SDS011;4281;45.772;12.852;2023-04-24T08:32:06;6.17;;;4.27;;
8488;SDS011;4281;45.772;12.852;2023-04-24T08:34:34;5.40;;;4.47;;
8488;SDS011;4281;45.772;12.852;2023-04-24T08:37:03;5.23;;;4.00;;
8488;SDS011;4281;45.772;12.852;2023-04-24T08:39:31;5.13;;;4.13;;
8488;SDS011;4281;45.772;12.852;2023-04-24T08:41:59;6.13;;;3.43;;
8488;SDS011;4281;45.772;12.852;2023-04-24T08:44:31;4.07;;;3.50;;
8488;SDS011;4281;45.772;12.852;2023-04-24T08:47:00;4.70;;;3.40;;
8488;SDS011;4281;45.772;12.852;2023-04-24T08:49:28;3.93;;;3.50;;
8488;SDS011;4281;45.772;12.852;2023-04-24T08:51:56;4.13;;;3.73;;
8488;SDS011;4281;45.772;12.852;2023-04-24T08:54:27;4.23;;;3.07;;
8488;SDS011;4281;45.772;12.852;2023-04-24T08:56:57;3.87;;;3.37;;
8488;SDS011;4281;45.772;12.852;2023-04-24T08:59:28;3.70;;;3.00;;
8488;SDS011;4281;45.772;12.852;2023-04-24T09:01:57;4.10;;;3.40;;
8488;SDS011;4281;45.772;12.852;2023-04-24T09:04:25;3.67;;;2.67;;
8488;SDS011;4281;45.772;12.852;2023-04-24T09:06:55;4.27;;;2.83;;
8488;SDS011;4281;45.772;12.852;2023-04-24T09:09:23;2.73;;;2.37;;
8488;SDS011;4281;45.772;12.852;2023-04-24T09:11:53;3.40;;;2.60;;
8488;SDS011;4281;45.772;12.852;2023-04-24T09:14:23;3.50;;;2.60;;
8488;SDS011;4281;45.772;12.852;2023-04-24T09:16:54;3.60;;;2.77;;
8488;SDS011;4281;45.772;12.852;2023-04-24T09:19:22;3.37;;;3.03;;
8488;SDS011;4281;45.772;12.852;2023-04-24T09:21:49;4.20;;;3.30;;
8488;SDS011;4281;45.772;12.852;2023-04-24T09:24:20;4.07;;;3.63;;
8488;SDS011;4281;45.772;12.852;2023-04-24T09:26:56;5.07;;;3.57;;
8488;SDS011;4281;45.772;12.852;2023-04-24T09:29:28;4.23;;;3.30;;
8488;SDS011;4281;45.772;12.852;2023-04-24T09:31:55;4.53;;;3.37;;
8488;SDS011;4281;45.772;12.852;2023-04-24T09:34:24;4.40;;;2.87;;
8488;SDS011;4281;45.772;12.852;2023-04-24T09:36:54;2.80;;;2.33;;
8488;SDS011;4281;45.772;12.852;2023-04-24T09:39:22;3.60;;;2.80;;
8488;SDS011;4281;45.772;12.852;2023-04-24T09:41:50;3.77;;;2.77;;
8488;SDS011;4281;45.772;12.852;2023-04-24T09:44:20;3.00;;;2.63;;
8488;SDS011;4281;45.772;12.852;2023-04-24T09:46:49;2.63;;;2.37;;
8488;SDS011;4281;45.772;12.852;2023-04-24T09:49:21;3.73;;;2.40;;
8488;SDS011;4281;45.772;12.852;2023-04-24T09:51:50;4.43;;;2.40;;
8488;SDS011;4281;45.772;12.852;2023-04-24T09:54:21;3.23;;;2.50;;
8488;SDS011;4281;45.772;12.852;2023-04-24T09:56:50;2.73;;;2.27;;
8488;SDS011;4281;45.772;12.852;2023-04-24T09:59:19;2.60;;;2.40;;
8488;SDS011;4281;45.772;12.852;2023-04-24T10:01:47;2.77;;;2.40;;
8488;SDS011;4281;45.772;12.852;2023-04-24T10:04:16;3.20;;;2.43;;
8488;SDS011;4281;45.772;12.852;2023-04-24T10:06:46;2.40;;;2.20;;
8488;SDS011;4281;45.772;12.852;2023-04-24T10:09:15;2.73;;;2.40;;
8488;SDS011;4281;45.772;12.852;2023-04-24T10:11:44;2.47;;;2.27;;
8488;SDS011;4281;45.772;12.852;2023-04-24T10:14:12;2.67;;;2.33;;
8488;SDS011;4281;45.772;12.852;2023-04-24T10:16:42;3.90;;;2.50;;
8488;SDS011;4281;45.772;12.852;2023-04-24T10:19:15;3.03;;;2.50;;
8488;SDS011;4281;45.772;12.852;2023-04-24T10:21:45;3.67;;;2.80;;
8488;SDS011;4281;45.772;12.852;2023-04-24T10:24:13;3.47;;;2.93;;
8488;SDS011;4281;45.772;12.852;2023-04-24T10:26:42;3.30;;;2.60;;
8488;SDS011;4281;45.772;12.852;2023-04-24T10:29:10;3.13;;;1.70;;
8488;SDS011;4281;45.772;12.852;2023-04-24T10:31:42;1.57;;;1.30;;
8488;SDS011;4281;45.772;12.852;2023-04-24T10:34:12;1.60;;;1.23;;
8488;SDS011;4281;45.772;12.852;2023-04-24T10:36:41;1.03;;;0.90;;
8488;SDS011;4281;45.772;12.852;2023-04-24T10:39:12;0.90;;;0.70;;
8488;SDS011;4281;45.772;12.852;2023-04-24T10:41:42;0.80;;;0.80;;
8488;SDS011;4281;45.772;12.852;2023-04-24T10:44:10;3.60;;;0.97;;
8488;SDS011;4281;45.772;12.852;2023-04-24T10:46:39;1.27;;;1.17;;
8488;SDS011;4281;45.772;12.852;2023-04-24T10:49:12;1.77;;;1.10;;
8488;SDS011;4281;45.772;12.852;2023-04-24T10:51:47;1.53;;;1.30;;
8488;SDS011;4281;45.772;12.852;2023-04-24T10:54:22;1.10;;;1.00;;
8488;SDS011;4281;45.772;12.852;2023-04-24T10:56:51;1.20;;;1.00;;
8488;SDS011;4281;45.772;12.852;2023-04-24T10:59:26;1.10;;;1.00;;
8488;SDS011;4281;45.772;12.852;2023-04-24T11:01:56;1.60;;;0.70;;
8488;SDS011;4281;45.772;12.852;2023-04-24T11:04:30;0.90;;;0.80;;
8488;SDS011;4281;45.772;12.852;2023-04-24T11:06:59;1.97;;;0.97;;
8488;SDS011;4281;45.772;12.852;2023-04-24T11:09:27;0.90;;;0.90;;
8488;SDS011;4281;45.772;12.852;2023-04-24T11:12:02;0.97;;;0.90;;
8488;SDS011;4281;45.772;12.852;2023-04-24T11:17:31;1.17;;;1.00;;
8488;SDS011;4281;45.772;12.852;2023-04-24T11:20:00;1.30;;;1.07;;
8488;SDS011;4281;45.772;12.852;2023-04-24T11:22:50;1.97;;;1.23;;
8488;SDS011;4281;45.772;12.852;2023-04-24T11:25:22;1.00;;;0.90;;
8488;SDS011;4281;45.772;12.852;2023-04-24T11:27:51;1.23;;;1.00;;
8488;SDS011;4281;45.772;12.852;2023-04-24T11:30:30;1.30;;;0.80;;
8488;SDS011;4281;45.772;12.852;2023-04-24T11:33:03;0.80;;;0.80;;
8488;SDS011;4281;45.772;12.852;2023-04-24T11:35:35;1.20;;;1.10;;
8488;SDS011;4281;45.772;12.852;2023-04-24T11:38:07;1.60;;;0.93;;
8488;SDS011;4281;45.772;12.852;2023-04-24T11:40:50;1.87;;;0.90;;
8488;SDS011;4281;45.772;12.852;2023-04-24T11:43:18;1.80;;;0.70;;
8488;SDS011;4281;45.772;12.852;2023-04-24T11:45:47;0.90;;;0.70;;
8488;SDS011;4281;45.772;12.852;2023-04-24T11:48:19;1.13;;;0.53;;
8488;SDS011;4281;45.772;12.852;2023-04-24T11:50:49;3.93;;;0.80;;
8488;SDS011;4281;45.772;12.852;2023-04-24T11:53:18;0.90;;;0.70;;
8488;SDS011;4281;45.772;12.852;2023-04-24T11:55:46;1.60;;;0.70;;
8488;SDS011;4281;45.772;12.852;2023-04-24T11:58:14;1.20;;;0.80;;
8488;SDS011;4281;45.772;12.852;2023-04-24T12:00:42;2.07;;;0.80;;
8488;SDS011;4281;45.772;12.852;2023-04-24T12:03:12;1.17;;;1.07;;
8488;SDS011;4281;45.772;12.852;2023-04-24T12:05:41;1.93;;;1.00;;
8488;SDS011;4281;45.772;12.852;2023-04-24T12:08:11;1.30;;;1.00;;
8488;SDS011;4281;45.772;12.852;2023-04-24T12:10:39;1.20;;;1.00;;
8488;SDS011;4281;45.772;12.852;2023-04-24T12:13:09;1.17;;;1.07;;
8488;SDS011;4281;45.772;12.852;2023-04-24T12:15:39;2.30;;;1.20;;
8488;SDS011;4281;45.772;12.852;2023-04-24T12:18:07;1.83;;;1.10;;
8488;SDS011;4281;45.772;12.852;2023-04-24T12:20:40;1.20;;;1.10;;
8488;SDS011;4281;45.772;12.852;2023-04-24T12:23:09;1.20;;;1.10;;
8488;SDS011;4281;45.772;12.852;2023-04-24T12:25:38;1.20;;;1.10;;
8488;SDS011;4281;45.772;12.852;2023-04-24T12:28:10;1.43;;;1.30;;
8488;SDS011;4281;45.772;12.852;2023-04-24T12:30:40;1.77;;;1.67;;
8488;SDS011;4281;45.772;12.852;2023-04-24T12:33:16;1.93;;;1.27;;
8488;SDS011;4281;45.772;12.852;2023-04-24T12:35:47;1.50;;;1.40;;
8488;SDS011;4281;45.772;12.852;2023-04-24T12:38:15;2.57;;;1.57;;
8488;SDS011;4281;45.772;12.852;2023-04-24T12:40:44;1.80;;;1.50;;
8488;SDS011;4281;45.772;12.852;2023-04-24T12:43:15;1.70;;;1.57;;
8488;SDS011;4281;45.772;12.852;2023-04-24T12:45:43;1.30;;;1.20;;
8488;SDS011;4281;45.772;12.852;2023-04-24T12:48:12;2.03;;;1.30;;
8488;SDS011;4281;45.772;12.852;2023-04-24T12:50:41;1.50;;;1.40;;
8488;SDS011;4281;45.772;12.852;2023-04-24T12:53:13;1.93;;;1.40;;
8488;SDS011;4281;45.772;12.852;2023-04-24T12:55:41;1.30;;;1.20;;
8488;SDS011;4281;45.772;12.852;2023-04-24T12:58:10;1.90;;;1.70;;
8488;SDS011;4281;45.772;12.852;2023-04-24T13:00:38;1.93;;;1.60;;
8488;SDS011;4281;45.772;12.852;2023-04-24T13:03:06;2.20;;;1.97;;
8488;SDS011;4281;45.772;12.852;2023-04-24T13:05:34;2.60;;;2.30;;
8488;SDS011;4281;45.772;12.852;2023-04-24T13:08:03;2.17;;;1.93;;
8488;SDS011;4281;45.772;12.852;2023-04-24T13:10:32;3.23;;;1.90;;
8488;SDS011;4281;45.772;12.852;2023-04-24T13:13:00;2.00;;;1.80;;
8488;SDS011;4281;45.772;12.852;2023-04-24T13:15:28;1.60;;;1.50;;
8488;SDS011;4281;45.772;12.852;2023-04-24T13:17:56;1.90;;;1.60;;
8488;SDS011;4281;45.772;12.852;2023-04-24T13:20:24;1.50;;;1.30;;
8488;SDS011;4281;45.772;12.852;2023-04-24T13:22:52;1.30;;;1.20;;
8488;SDS011;4281;45.772;12.852;2023-04-24T13:25:20;1.07;;;1.00;;
8488;SDS011;4281;45.772;12.852;2023-04-24T13:27:51;1.40;;;1.30;;
8488;SDS011;4281;45.772;12.852;2023-04-24T13:30:18;1.33;;;1.23;;
8488;SDS011;4281;45.772;12.852;2023-04-24T13:32:46;1.87;;;1.27;;
8488;SDS011;4281;45.772;12.852;2023-04-24T13:35:14;2.20;;;1.70;;
8488;SDS011;4281;45.772;12.852;2023-04-24T13:37:42;2.13;;;1.90;;
8488;SDS011;4281;45.772;12.852;2023-04-24T13:40:11;3.03;;;1.90;;
8488;SDS011;4281;45.772;12.852;2023-04-24T13:42:39;2.80;;;2.17;;
8488;SDS011;4281;45.772;12.852;2023-04-24T13:45:09;2.17;;;1.80;;
8488;SDS011;4281;45.772;12.852;2023-04-24T13:47:50;2.10;;;1.70;;
8488;SDS011;4281;45.772;12.852;2023-04-24T13:50:18;1.87;;;1.50;;
8488;SDS011;4281;45.772;12.852;2023-04-24T13:52:46;1.50;;;1.40;;
8488;SDS011;4281;45.772;12.852;2023-04-24T13:55:14;1.23;;;1.13;;
8488;SDS011;4281;45.772;12.852;2023-04-24T13:57:42;1.30;;;1.13;;
8488;SDS011;4281;45.772;12.852;2023-04-24T14:00:12;1.37;;;1.20;;
8488;SDS011;4281;45.772;12.852;2023-04-24T14:02:41;1.20;;;1.10;;
8488;SDS011;4281;45.772;12.852;2023-04-24T14:05:09;1.10;;;1.00;;
8488;SDS011;4281;45.772;12.852;2023-04-24T14:07:38;2.10;;;1.40;;
8488;SDS011;4281;45.772;12.852;2023-04-24T14:10:06;1.40;;;1.30;;
8488;SDS011;4281;45.772;12.852;2023-04-24T14:12:34;1.73;;;1.60;;
8488;SDS011;4281;45.772;12.852;2023-04-24T14:15:02;1.47;;;1.30;;
8488;SDS011;4281;45.772;12.852;2023-04-24T14:17:32;1.63;;;1.40;;
8488;SDS011;4281;45.772;12.852;2023-04-24T14:20:00;1.47;;;1.20;;
8488;SDS011;4281;45.772;12.852;2023-04-24T14:22:29;1.57;;;1.20;;
8488;SDS011;4281;45.772;12.852;2023-04-24T14:24:57;1.40;;;1.30;;
8488;SDS011;4281;45.772;12.852;2023-04-24T14:27:25;1.20;;;1.10;;
8488;SDS011;4281;45.772;12.852;2023-04-24T14:29:53;1.20;;;1.10;;
8488;SDS011;4281;45.772;12.852;2023-04-24T14:32:21;1.30;;;1.20;;
8488;SDS011;4281;45.772;12.852;2023-04-24T14:34:50;1.50;;;1.40;;
8488;SDS011;4281;45.772;12.852;2023-04-24T14:37:18;1.97;;;1.80;;
8488;SDS011;4281;45.772;12.852;2023-04-24T14:39:46;1.87;;;1.70;;
8488;SDS011;4281;45.772;12.852;2023-04-24T14:42:31;1.80;;;1.50;;
8488;SDS011;4281;45.772;12.852;2023-04-24T14:44:59;1.90;;;1.10;;
8488;SDS011;4281;45.772;12.852;2023-04-24T14:47:27;1.23;;;1.13;;
8488;SDS011;4281;45.772;12.852;2023-04-24T14:49:57;1.63;;;1.30;;
8488;SDS011;4281;45.772;12.852;2023-04-24T14:52:26;1.30;;;1.20;;
8488;SDS011;4281;45.772;12.852;2023-04-24T14:54:53;1.60;;;1.27;;
8488;SDS011;4281;45.772;12.852;2023-04-24T14:57:22;1.53;;;1.20;;
8488;SDS011;4281;45.772;12.852;2023-04-24T14:59:50;1.27;;;1.17;;
8488;SDS011;4281;45.772;12.852;2023-04-24T15:02:17;1.40;;;1.10;;
8488;SDS011;4281;45.772;12.852;2023-04-24T15:04:47;1.93;;;1.00;;
8488;SDS011;4281;45.772;12.852;2023-04-24T15:07:17;1.47;;;1.10;;
8488;SDS011;4281;45.772;12.852;2023-04-24T15:09:45;1.20;;;1.10;;
8488;SDS011;4281;45.772;12.852;2023-04-24T15:12:13;1.50;;;1.10;;
8488;SDS011;4281;45.772;12.852;2023-04-24T15:14:41;1.20;;;1.10;;